10. August 2022

Uhrzeit Code Wetter Temp. Sichtweite Wolkendecke Wind METAR/SPECI
23:50
V
18 °C 10 km+ - 090° 090° 5 kt METAR EDTY 102150Z AUTO 09005KT 9999 // NCD 18/06 Q1023
23:20
V
18 °C 10 km+ - 100° 100° 6 kt METAR EDTY 102120Z AUTO 10006KT 9999 // NCD 18/06 Q1023
22:50
V
19 °C 10 km+ - 100° 100° 4 kt METAR EDTY 102050Z AUTO 10004KT 9999 // NCD 19/06 Q1023
22:20
V
20 °C 10 km+ - 080° 080° 4 kt METAR EDTY 102020Z AUTO 08004KT 9999 // NCD 20/06 Q1023
21:50
V
20 °C 10 km+ - 070° 070° 5 kt METAR EDTY 101950Z AUTO 07005KT 9999 // NCD 20/05 Q1023
21:20
V
21 °C 10 km+ - 090° 090° 5 kt METAR EDTY 101920Z AUTO 09005KT 9999 // NCD 21/05 Q1022
20:50
V
21 °C 10 km+ - 100° 100° 6 kt METAR EDTY 101850Z AUTO 10006KT 9999 // NCD 21/06 Q1022
20:20
V
24 °C 10 km+ - 090° 090° 9 kt METAR EDTY 101820Z AUTO 09009KT 9999 // NCD 24/06 Q1022
19:50
V
26 °C 10 km+ - 090° 090° 9 kt METAR EDTY 101750Z 09009KT CAVOK 26/05 Q1022
19:20
V
26 °C 10 km+ - 100° 100° 10 kt METAR EDTY 101720Z 10010KT CAVOK 26/05 Q1022
18:50
V
27 °C 10 km+ - 100° 100° 12 kt METAR EDTY 101650Z 10012KT CAVOK 27/05 Q1022
18:20
V
27 °C 10 km+ - 100° 100° 10 kt METAR EDTY 101620Z 10010KT 060V130 CAVOK 27/06 Q1022
17:50
V
27 °C 10 km+ - 080° 080° 10 kt METAR EDTY 101550Z 08010KT CAVOK 27/05 Q1022
17:20
V
27 °C 10 km+ - 060° 060° 12 kt METAR EDTY 101520Z 06012KT CAVOK 27/05 Q1023
16:50
V
28 °C 10 km+ - 090° 090° 10 kt METAR EDTY 101450Z 09010KT 050V150 CAVOK 28/05 Q1023
16:20
V
28 °C 10 km+ - 100° 100° 12 kt METAR EDTY 101420Z 10012KT 050V130 CAVOK 28/04 Q1023
15:50
V
28 °C 10 km+ - 100° 100° 12 kt METAR EDTY 101350Z 10012KT 060V130 CAVOK 28/05 Q1023
15:20
V
27 °C 10 km+ - 070° 070° 11 - 22 kt METAR EDTY 101320Z 07011G22KT 010V120 CAVOK 27/05 Q1024
14:50
V
27 °C 10 km+ - 090° 090° 8 kt METAR EDTY 101250Z 09008KT 060V140 CAVOK 27/05 Q1024
14:20
V
27 °C 10 km+ - 080° 080° 11 kt METAR EDTY 101220Z 08011KT 030V110 CAVOK 27/06 Q1024
13:50
V
27 °C 10 km+ - 080° 080° 13 kt METAR EDTY 101150Z 08013KT 040V110 CAVOK 27/05 Q1024
13:20
V
27 °C 10 km+ - 090° 090° 13 kt METAR EDTY 101120Z 09013KT 060V120 CAVOK 27/05 Q1024
12:50
V
26 °C 10 km+ - 080° 080° 13 kt METAR EDTY 101050Z 08013KT 040V120 CAVOK 26/06 Q1024
12:20
V
26 °C 10 km+ - 110° 110° 15 kt METAR EDTY 101020Z 11015KT 080V140 CAVOK 26/06 Q1025
11:50
V
25 °C 10 km+ - 110° 110° 14 kt METAR EDTY 100950Z 11014KT 080V140 CAVOK 25/05 Q1025
11:20
V
25 °C 10 km+ - 080° 080° 15 kt METAR EDTY 100920Z 08015KT CAVOK 25/06 Q1025
10:50
V
25 °C 10 km+ - 090° 090° 15 kt METAR EDTY 100850Z 09015KT CAVOK 25/08 Q1025
10:20
V
24 °C 10 km+ - 110° 110° 13 kt METAR EDTY 100820Z 11013KT CAVOK 24/08 Q1025
09:50
V
23 °C 10 km+ - 090° 090° 10 kt METAR EDTY 100750Z 09010KT CAVOK 23/09 Q1025
09:20
V
22 °C 10 km+ - 100° 100° 7 kt METAR EDTY 100720Z 10007KT 070V130 CAVOK 22/09 Q1025
08:50
V
20 °C 10 km+ - 100° 100° 5 kt METAR EDTY 100650Z 10005KT 070V130 CAVOK 20/09 Q1025
08:20
V
18 °C 10 km+ - 090° 090° 4 kt METAR EDTY 100620Z 09004KT CAVOK 18/09 Q1025
07:50
V
16 °C 10 km+ - 080° 080° 5 kt METAR EDTY 100550Z 08005KT CAVOK 16/09 Q1025
07:20
V
14 °C 10 km+ - 090° 090° 5 kt METAR EDTY 100520Z 09005KT CAVOK 14/08 Q1025
06:50
V
13 °C 10 km+ - 100° 100° 6 kt METAR EDTY 100450Z 10006KT CAVOK 13/08 Q1025
06:20
V
12 °C 10 km+ - 100° 100° 5 kt METAR EDTY 100420Z AUTO 10005KT 9999 // NCD 12/07 Q1025
05:50
V
12 °C 10 km+ - 100° 100° 6 kt METAR EDTY 100350Z AUTO 10006KT 9999 // NCD 12/07 Q1025
05:20
V
13 °C 10 km+ - 100° 100° 6 kt METAR EDTY 100320Z AUTO 10006KT 9999 // NCD 13/07 Q1025
04:50
V
13 °C 10 km+ - 100° 100° 6 kt METAR EDTY 100250Z AUTO 10006KT 9999 // NCD 13/07 Q1025
04:20
V
12 °C 10 km+ - 090° 090° 6 kt METAR EDTY 100220Z AUTO 09006KT 9999 // NCD 12/07 Q1025
03:50
V
13 °C 10 km+ - 080° 080° 5 kt METAR EDTY 100150Z AUTO 08005KT 9999 // NCD 13/07 Q1025
03:20
V
14 °C 10 km+ - 100° 100° 6 kt METAR EDTY 100120Z AUTO 10006KT 9999 // NCD 14/07 Q1025
02:50
V
14 °C 10 km+ - 100° 100° 6 kt METAR EDTY 100050Z AUTO 10006KT 9999 // NCD 14/07 Q1025
02:20
V
14 °C 10 km+ - 080° 080° 6 kt METAR EDTY 100020Z AUTO 08006KT 9999 // NCD 14/07 Q1025
01:50
V
15 °C 10 km+ - 090° 090° 6 kt METAR EDTY 092350Z AUTO 09006KT 9999 // NCD 15/07 Q1025
01:20
V
17 °C 10 km+ - 080° 080° 6 kt METAR EDTY 092320Z AUTO 08006KT 9999 // NCD 17/07 Q1025
00:50
V
17 °C 10 km+ - 080° 080° 6 kt METAR EDTY 092250Z AUTO 08006KT 9999 // NCD 17/07 Q1025
00:20
V
18 °C 10 km+ - 090° 090° 6 kt METAR EDTY 092220Z AUTO 09006KT 9999 // NCD 18/07 Q1025

9. August 2022

Uhrzeit Code Wetter Temp. Sichtweite Wolkendecke Wind METAR/SPECI
23:50
V
17 °C 10 km+ - 100° 100° 6 kt METAR EDTY 092150Z AUTO 10006KT 9999 // NCD 17/06 Q1025
23:20
V
18 °C 10 km+ - 100° 100° 5 kt METAR EDTY 092120Z AUTO 10005KT 9999 // NCD 18/06 Q1025
22:50
V
21 °C 10 km+ - 100° 100° 4 kt METAR EDTY 092050Z AUTO 10004KT 9999 // NCD 21/06 Q1025
22:20
V
20 °C 10 km+ - 090° 090° 5 kt METAR EDTY 092020Z AUTO 09005KT 9999 // NCD 20/06 Q1025
21:50
V
22 °C 10 km+ - 050° 050° 6 kt METAR EDTY 091950Z AUTO 05006KT 9999 // NCD 22/06 Q1024
21:20
V
23 °C 10 km+ - 050° 050° 6 kt METAR EDTY 091920Z AUTO 05006KT 9999 // NCD 23/06 Q1024
20:50
V
23 °C 10 km+ - 050° 050° 6 kt METAR EDTY 091850Z AUTO 05006KT 9999 // NCD 23/06 Q1024
20:20
V
25 °C 10 km+ - 050° 050° 6 kt METAR EDTY 091820Z AUTO 05006KT 9999 // NCD 25/06 Q1024
19:50
V
26 °C 10 km+ - 060° 060° 9 kt METAR EDTY 091750Z 06009KT CAVOK 26/06 Q1024
19:20
V
27 °C 10 km+ - 060° 060° 8 kt METAR EDTY 091720Z 06008KT CAVOK 27/06 Q1024
18:50
V
27 °C 10 km+ - 070° 070° 9 kt METAR EDTY 091650Z 07009KT CAVOK 27/06 Q1024
18:20
V
28 °C 10 km+ - 060° 060° 9 kt METAR EDTY 091620Z 06009KT 030V090 CAVOK 28/05 Q1024
17:50
V
28 °C 10 km+ - 050° 050° 10 kt METAR EDTY 091550Z 05010KT 010V090 CAVOK 28/05 Q1024
17:20
V
28 °C 10 km+ - 050° 050° 11 kt METAR EDTY 091520Z 05011KT 010V080 CAVOK 28/06 Q1024
16:50
V
28 °C 10 km+ - 060° 060° 11 kt METAR EDTY 091450Z 06011KT 020V100 CAVOK 28/06 Q1024
16:20
V
28 °C 10 km+ - 080° 080° 10 kt METAR EDTY 091420Z 08010KT 040V120 CAVOK 28/06 Q1024
15:50
V
28 °C 10 km+ - 050° 050° 7 kt METAR EDTY 091350Z 05007KT 360V100 CAVOK 28/07 Q1024
15:20
V
28 °C 10 km+ - 090° 090° 9 kt METAR EDTY 091320Z 09009KT 060V160 CAVOK 28/07 Q1024
14:50
V
28 °C 10 km+ - Var Var 7 kt METAR EDTY 091250Z VRB07KT CAVOK 28/07 Q1024
14:20
V
27 °C 10 km+ - 080° 080° 9 - 25 kt METAR EDTY 091220Z 08009G25KT 030V150 CAVOK 27/06 Q1025
13:50
V
27 °C 10 km+ - 050° 050° 10 kt METAR EDTY 091150Z 05010KT 010V090 CAVOK 27/06 Q1025
13:20
V
27 °C 10 km+ - 100° 100° 11 kt METAR EDTY 091120Z 10011KT 060V130 CAVOK 27/07 Q1025
12:50
V
26 °C 10 km+ - 070° 070° 10 kt METAR EDTY 091050Z 07010KT 020V110 CAVOK 26/07 Q1025
12:20
V
26 °C 10 km+ - 070° 070° 11 kt METAR EDTY 091020Z 07011KT 050V110 CAVOK 26/07 Q1025
11:50
V
25 °C 10 km+ - 060° 060° 12 kt METAR EDTY 090950Z 06012KT 030V090 CAVOK 25/07 Q1025
11:20
V
25 °C 10 km+ - 100° 100° 10 kt METAR EDTY 090920Z 10010KT CAVOK 25/08 Q1025
10:50
V
24 °C 10 km+ - 100° 100° 8 kt METAR EDTY 090850Z 10008KT 060V140 CAVOK 24/09 Q1025
10:20
V
23 °C 10 km+ - 100° 100° 8 kt METAR EDTY 090820Z 10008KT CAVOK 23/09 Q1025
09:50
V
22 °C 10 km+ - 100° 100° 9 kt METAR EDTY 090750Z 10009KT 070V130 CAVOK 22/09 Q1025
09:20
V
21 °C 10 km+ - 100° 100° 9 kt METAR EDTY 090720Z 10009KT CAVOK 21/09 Q1025
08:50
V
20 °C 10 km+ - 100° 100° 7 kt METAR EDTY 090650Z 10007KT CAVOK 20/08 Q1025
08:20
V
18 °C 10 km+ - 090° 090° 6 kt METAR EDTY 090620Z 09006KT CAVOK 18/07 Q1025
07:50
V
16 °C 10 km+ - 090° 090° 4 kt METAR EDTY 090550Z 09004KT CAVOK 16/08 Q1025
07:20
V
13 °C 10 km+ - 080° 080° 5 kt METAR EDTY 090520Z 08005KT CAVOK 13/08 Q1025
06:20
V
10 °C 10 km+ - 090° 090° 5 kt METAR EDTY 090420Z 09005KT CAVOK 10/06 Q1024
05:50
V
11 °C 10 km+ - Var Var 2 kt METAR EDTY 090350Z AUTO VRB02KT 9999 // NCD 11/06 Q1024
05:20
V
12 °C 10 km+ - 090° 090° 5 kt METAR EDTY 090320Z AUTO 09005KT 9999 // NCD 12/07 Q1023
04:50
V
13 °C 10 km+ - 090° 090° 4 kt METAR EDTY 090250Z AUTO 09004KT 9999 // NCD 13/06 Q1024
04:20
V
14 °C 10 km+ - 100° 100° 4 kt METAR EDTY 090220Z AUTO 10004KT 080V180 9999 // NCD 14/07 Q1024
03:50
V
13 °C 10 km+ - 100° 100° 6 kt METAR EDTY 090150Z AUTO 10006KT 9999 // NCD 13/06 Q1024
03:20
V
14 °C 10 km+ - 100° 100° 5 kt METAR EDTY 090120Z AUTO 10005KT 9999 // NCD 14/06 Q1024
02:50
V
13 °C 10 km+ - 080° 080° 3 kt METAR EDTY 090050Z AUTO 08003KT 9999 // NCD 13/06 Q1023
02:20
V
15 °C 10 km+ - 100° 100° 5 kt METAR EDTY 090020Z AUTO 10005KT 9999 // NCD 15/06 Q1023
01:50
V
15 °C 10 km+ - 080° 080° 6 kt METAR EDTY 082350Z AUTO 08006KT 9999 // NCD 15/06 Q1023
01:20
V
16 °C 10 km+ - 100° 100° 5 kt METAR EDTY 082320Z AUTO 10005KT 9999 // NCD 16/06 Q1023
00:50
V
16 °C 10 km+ - 110° 110° 4 kt METAR EDTY 082250Z AUTO 11004KT 9999 // NCD 16/06 Q1023
00:20
V
16 °C 10 km+ - 090° 090° 3 kt METAR EDTY 082220Z AUTO 09003KT 9999 // NCD 16/06 Q1023

8. August 2022

Uhrzeit Code Wetter Temp. Sichtweite Wolkendecke Wind METAR/SPECI
23:50
V
17 °C 10 km+ - 080° 080° 2 kt METAR EDTY 082150Z AUTO 08002KT 9999 // NCD 17/06 Q1023
23:20
V
19 °C 10 km+ - 090° 090° 2 kt METAR EDTY 082120Z AUTO 09002KT 9999 // NCD 19/06 Q1023
22:50
V
20 °C 10 km+ - 090° 090° 3 kt METAR EDTY 082050Z AUTO 09003KT 9999 // NCD 20/05 Q1023
22:20
V
21 °C 10 km+ - 050° 050° 3 kt METAR EDTY 082020Z AUTO 05003KT 020V080 9999 // NCD 21/06 Q1023
21:50
V
20 °C 10 km+ - 050° 050° 3 kt METAR EDTY 081950Z AUTO 05003KT 020V080 9999 // NCD 20/06 Q1023
21:20
V
21 °C 10 km+ - 030° 030° 5 kt METAR EDTY 081920Z AUTO 03005KT 9999 // NCD 21/06 Q1023
20:50
V
22 °C 10 km+ - 040° 040° 5 kt METAR EDTY 081850Z AUTO 04005KT 9999 // NCD 22/06 Q1022
20:20
V
25 °C 10 km+ - 050° 050° 6 kt METAR EDTY 081820Z 05006KT CAVOK 25/06 Q1022
19:50
V
26 °C 10 km+ - 060° 060° 8 kt METAR EDTY 081750Z 06008KT CAVOK 26/06 Q1022
19:20
V
27 °C 10 km+ - 050° 050° 7 kt METAR EDTY 081720Z 05007KT 010V080 CAVOK 27/06 Q1022
18:50
V
27 °C 10 km+ - 060° 060° 7 kt METAR EDTY 081650Z 06007KT 360V080 CAVOK 27/05 Q1022
18:20
V
27 °C 10 km+ - 050° 050° 9 kt METAR EDTY 081620Z 05009KT CAVOK 27/05 Q1022
17:50
V
27 °C 10 km+ - 010° 010° 8 kt METAR EDTY 081550Z 01008KT 340V040 CAVOK 27/05 Q1022
17:20
V
27 °C 10 km+ - 040° 040° 4 kt METAR EDTY 081520Z 04004KT 350V130 CAVOK 27/05 Q1022
16:50
V
28 °C 10 km+ - 060° 060° 6 kt METAR EDTY 081450Z 06006KT 360V140 CAVOK 28/05 Q1022
Ältere Daten

Wir und Dritte verfolgen dein Internetverhalten auf unserer Website mit Cookies. Wenn du fortfährst, gehen wir davon aus, dass du mit unserer Cookie-Richtlinie einverstanden bist. Mehr erfahren